Time;durP1;ratioP1;P1;durP2;ratioP2;P2;SDS_P1;SDS_P2;PMS_P1;PMS_P2;Temp;Humidity;BMP_temperature;BMP_pressure;BME280_temperature;BME280_humidity;BME280_pressure;Samples;Min_cycle;Max_cycle;Signal;HPM_P1;HPM_P2
2024/01/09 00:00:54;;;;;;;24.57;11.00;;;-9.60;99.90;-10.50;102447.00;;;;4909603;28;95641;-65
2024/01/09 00:03:20;;;;;;;25.90;11.90;;;-9.60;99.90;-10.50;102431.00;;;;4907831;28;98684;-66
2024/01/09 00:05:45;;;;;;;20.57;10.70;;;-9.20;99.90;-10.50;102422.00;;;;4903614;28;92837;-66
2024/01/09 00:08:11;;;;;;;23.13;11.80;;;-9.70;99.90;-10.50;102429.00;;;;4905282;28;107585;-66
2024/01/09 00:10:37;;;;;;;22.90;11.83;;;-9.60;99.90;-10.50;102435.00;;;;4901850;28;122318;-65
2024/01/09 00:13:04;;;;;;;25.53;11.83;;;-9.70;99.90;-10.50;102425.00;;;;4904122;28;119987;-65
2024/01/09 00:15:30;;;;;;;28.50;12.13;;;-9.60;99.90;-10.50;102423.00;;;;4905787;28;92893;-66
2024/01/09 00:17:57;;;;;;;16.27;10.43;;;-9.40;99.90;-10.50;102418.00;;;;4920596;28;97308;-66
2024/01/09 00:20:23;;;;;;;25.27;11.80;;;-9.70;99.90;-10.50;102431.00;;;;4906302;28;93131;-67
2024/01/09 00:22:50;;;;;;;21.10;11.97;;;-9.60;99.90;-10.50;102412.00;;;;4904292;28;121530;-65
2024/01/09 00:25:18;;;;;;;24.70;12.83;;;-9.70;99.90;-10.60;102420.00;;;;4908437;28;94488;-65
2024/01/09 00:27:44;;;;;;;25.70;13.10;;;-9.80;99.90;-10.50;102424.00;;;;4905927;28;92651;-66
2024/01/09 00:30:11;;;;;;;20.37;11.27;;;-9.70;99.90;-10.50;102416.00;;;;4905450;28;106181;-66
2024/01/09 00:32:37;;;;;;;26.70;12.30;;;-9.60;99.90;-10.50;102405.00;;;;4906556;28;93698;-66
2024/01/09 00:35:04;;;;;;;27.33;14.03;;;-9.80;99.90;-10.40;102415.00;;;;4904954;28;92795;-66
2024/01/09 00:37:29;;;;;;;32.13;15.93;;;-9.60;99.90;-10.40;102420.00;;;;4906542;28;99741;-66
2024/01/09 00:39:55;;;;;;;31.20;15.27;;;-9.60;99.90;-10.40;102411.00;;;;4901720;28;124188;-65
2024/01/09 00:42:21;;;;;;;25.50;14.03;;;-9.70;99.90;-10.40;102421.00;;;;4905848;28;122248;-66
2024/01/09 00:44:46;;;;;;;30.60;14.07;;;-9.60;99.90;-10.40;102429.00;;;;4906426;28;107021;-66
2024/01/09 00:47:12;;;;;;;25.97;13.20;;;-9.60;99.90;-10.40;102425.00;;;;4908854;28;101767;-66
2024/01/09 00:49:38;;;;;;;29.70;14.80;;;-9.50;99.90;-10.40;102431.00;;;;4900354;28;122747;-67
2024/01/09 00:52:04;;;;;;;27.63;13.30;;;-9.60;99.90;-10.40;102432.00;;;;4900297;28;109035;-67
2024/01/09 00:54:35;;;;;;;29.17;15.53;;;-9.50;99.90;-10.40;102450.00;;;;4905341;28;97431;-66
2024/01/09 00:57:01;;;;;;;31.73;14.70;;;-8.80;99.90;-10.40;102433.00;;;;4905196;28;109087;-65
2024/01/09 00:59:27;;;;;;;25.70;14.63;;;-9.60;99.90;-10.40;102434.00;;;;4902925;28;112351;-66
2024/01/09 01:01:52;;;;;;;28.53;13.30;;;-9.20;99.90;-10.40;102434.00;;;;4901245;28;94013;-66
2024/01/09 01:04:18;;;;;;;27.27;13.10;;;-8.80;99.90;-10.40;102431.00;;;;4900912;28;112920;-65
2024/01/09 01:06:45;;;;;;;29.17;15.13;;;-9.70;99.90;-10.50;102439.00;;;;4902367;28;96076;-66
2024/01/09 01:09:11;;;;;;;26.63;12.90;;;-9.60;99.90;-10.40;102425.00;;;;4903499;28;93986;-66
2024/01/09 01:11:38;;;;;;;33.37;14.47;;;-9.50;99.90;-10.50;102420.00;;;;4905266;28;109438;-66
2024/01/09 01:14:03;;;;;;;34.77;15.93;;;-9.70;99.90;-10.50;102418.00;;;;4901965;28;115074;-66
2024/01/09 01:16:30;;;;;;;30.63;14.97;;;-9.70;99.90;-10.50;102423.00;;;;4907158;28;101434;-66
2024/01/09 01:18:56;;;;;;;33.93;16.87;;;-9.70;99.90;-10.50;102412.00;;;;4902920;28;97277;-66
2024/01/09 01:21:23;;;;;;;30.17;13.50;;;-9.70;99.90;-10.50;102423.00;;;;4907106;28;121881;-66
2024/01/09 01:23:49;;;;;;;26.77;14.40;;;-9.60;99.90;-10.60;102420.00;;;;4908729;28;92822;-66
2024/01/09 01:26:14;;;;;;;28.03;15.00;;;-9.80;99.90;-10.60;102419.00;;;;4905994;28;108962;-67
2024/01/09 01:28:41;;;;;;;33.10;15.10;;;-9.80;99.90;-10.70;102434.00;;;;4904896;28;122949;-65
2024/01/09 01:31:07;;;;;;;30.07;15.17;;;-9.90;99.90;-10.70;102420.00;;;;4908052;28;94017;-65
2024/01/09 01:33:33;;;;;;;34.40;16.13;;;-9.50;99.90;-10.70;102420.00;;;;4906023;28;93228;-66
2024/01/09 01:35:58;;;;;;;26.20;13.03;;;-9.30;99.90;-10.70;102417.00;;;;4911159;28;99386;-66
2024/01/09 01:38:25;;;;;;;28.93;15.03;;;-9.90;99.90;-10.80;102427.00;;;;4904344;28;123779;-65
2024/01/09 01:40:50;;;;;;;34.23;15.90;;;-9.90;99.90;-10.80;102422.00;;;;4906372;28;94725;-65
2024/01/09 01:43:16;;;;;;;37.63;16.30;;;-9.10;99.90;-10.90;102409.00;;;;4902876;28;111723;-64
2024/01/09 01:45:42;;;;;;;37.80;16.63;;;-9.10;99.90;-10.90;102408.00;;;;4907698;28;108804;-65
2024/01/09 01:48:10;;;;;;;36.23;16.37;;;-10.10;99.90;-10.90;102423.00;;;;4905901;28;94024;-66
2024/01/09 01:50:38;;;;;;;34.83;16.73;;;-10.10;99.90;-11.00;102428.00;;;;4902297;28;94288;-65
2024/01/09 01:53:06;;;;;;;31.77;14.67;;;-10.10;99.90;-11.00;102430.00;;;;4918918;28;92809;-66
2024/01/09 01:55:33;;;;;;;30.80;15.73;;;-10.10;99.90;-11.10;102417.00;;;;4915264;28;109140;-67
2024/01/09 01:58:00;;;;;;;26.67;14.23;;;-10.20;99.90;-11.10;102418.00;;;;4918058;28;121818;-66
2024/01/09 02:00:27;;;;;;;30.23;15.30;;;-10.20;99.90;-11.10;102408.00;;;;4907897;28;117484;-66
2024/01/09 02:02:53;;;;;;;35.97;15.63;;;-10.20;99.90;-11.10;102413.00;;;;4900641;28;93795;-66
2024/01/09 02:05:23;;;;;;;30.83;14.47;;;-10.20;99.90;-11.20;102418.00;;;;4918720;28;93332;-66
2024/01/09 02:07:53;;;;;;;25.77;14.53;;;-10.30;99.90;-11.20;102425.00;;;;4923272;28;93109;-66
2024/01/09 02:10:20;;;;;;;35.30;15.63;;;-10.20;99.90;-11.30;102410.00;;;;4903784;28;93138;-66
2024/01/09 02:12:46;;;;;;;28.97;13.77;;;-10.30;99.90;-11.30;102423.00;;;;4906730;28;92893;-65
2024/01/09 02:15:12;;;;;;;28.13;14.53;;;-10.40;99.90;-11.40;102418.00;;;;4910456;28;93130;-65
2024/01/09 02:17:38;;;;;;;31.07;15.27;;;-10.50;99.90;-11.40;102421.00;;;;4909739;28;120398;-66
2024/01/09 02:20:11;;;;;;;28.07;14.60;;;-10.60;99.90;-11.50;102416.00;;;;4904771;28;93625;-66
2024/01/09 02:22:37;;;;;;;25.10;13.43;;;-10.50;99.90;-11.50;102422.00;;;;4904989;28;93202;-65
2024/01/09 02:25:04;;;;;;;25.23;14.03;;;-10.50;99.90;-11.50;102419.00;;;;4904293;28;92915;-66
2024/01/09 02:28:11;;;;;;;33.07;15.67;;;-10.60;99.90;-11.50;102408.00;;;;4898366;28;94225;-64
2024/01/09 02:30:37;;;;;;;33.03;15.43;;;-10.60;99.90;-11.50;102418.00;;;;4903439;28;94003;-65
2024/01/09 02:33:03;;;;;;;31.10;15.83;;;-10.60;99.90;-11.50;102418.00;;;;4914970;28;112643;-65
2024/01/09 02:35:29;;;;;;;32.10;14.20;;;-10.60;99.90;-11.50;102397.00;;;;4906133;28;92863;-65
2024/01/09 02:37:55;;;;;;;30.13;15.47;;;-9.90;99.90;-11.50;102395.00;;;;4902182;28;93406;-65
2024/01/09 02:40:22;;;;;;;32.10;16.17;;;-10.60;99.90;-11.50;102404.00;;;;4902887;28;120094;-66
2024/01/09 02:42:48;;;;;;;34.30;15.43;;;-10.80;99.90;-11.60;102408.00;;;;4903301;28;93128;-65
2024/01/09 02:45:13;;;;;;;29.70;15.97;;;-10.60;99.90;-11.60;102413.00;;;;4900625;28;108418;-66
2024/01/09 02:47:39;;;;;;;29.10;14.50;;;-10.70;99.90;-11.60;102412.00;;;;4906319;28;108031;-66
2024/01/09 02:50:05;;;;;;;31.73;15.50;;;-10.80;99.90;-11.60;102415.00;;;;4903085;28;119963;-66
2024/01/09 02:52:31;;;;;;;28.97;17.00;;;-10.70;99.90;-11.70;102413.00;;;;4903684;28;104650;-66
2024/01/09 02:54:57;;;;;;;29.10;15.63;;;-10.70;99.90;-11.70;102423.00;;;;4904300;28;108879;-66
2024/01/09 02:57:22;;;;;;;31.07;15.40;;;-10.70;99.90;-11.70;102417.00;;;;4909369;28;121829;-66
2024/01/09 02:59:48;;;;;;;31.90;15.73;;;-10.60;99.90;-11.70;102421.00;;;;4906363;28;122468;-66
2024/01/09 03:02:14;;;;;;;34.77;16.30;;;-11.70;99.90;-11.70;102413.00;;;;4903743;28;112581;-67
2024/01/09 03:04:39;;;;;;;37.67;15.87;;;-11.00;99.90;-11.80;102416.00;;;;4906786;28;108375;-67
2024/01/09 03:07:05;;;;;;;28.23;14.80;;;-10.90;99.90;-11.70;102413.00;;;;4904424;28;93272;-66
2024/01/09 03:09:32;;;;;;;32.80;16.30;;;-11.00;99.90;-11.70;102420.00;;;;4904859;28;97859;-67
2024/01/09 03:11:57;;;;;;;33.20;17.63;;;-10.80;99.90;-11.80;102412.00;;;;4910050;28;93373;-67
2024/01/09 03:14:23;;;;;;;32.60;17.23;;;-10.70;99.90;-11.80;102422.00;;;;4906264;28;93041;-66
2024/01/09 03:16:49;;;;;;;36.93;17.37;;;-11.00;99.90;-11.80;102424.00;;;;4904450;28;93727;-66
2024/01/09 03:19:15;;;;;;;30.87;16.83;;;-10.80;99.90;-11.80;102414.00;;;;4904017;28;99710;-66
2024/01/09 03:21:41;;;;;;;33.43;17.93;;;-10.90;99.90;-11.80;102418.00;;;;4905850;28;97009;-65
2024/01/09 03:24:28;;;;;;;34.80;17.60;;;-10.90;99.90;-11.80;102423.00;;;;4905040;28;96332;-66
2024/01/09 03:26:54;;;;;;;35.37;17.13;;;-10.90;99.90;-11.80;102437.00;;;;4905530;28;122496;-67
2024/01/09 03:29:20;;;;;;;37.47;17.80;;;-11.20;99.90;-11.80;102422.00;;;;4909306;28;122202;-67
2024/01/09 03:31:45;;;;;;;38.10;19.70;;;-10.90;99.90;-11.80;102429.00;;;;4904688;28;96463;-66
2024/01/09 03:34:11;;;;;;;37.43;17.07;;;-10.70;99.90;-11.70;102433.00;;;;4909082;28;108384;-66
2024/01/09 03:36:38;;;;;;;30.13;15.60;;;-10.60;99.90;-11.70;102433.00;;;;4906166;28;113936;-66
2024/01/09 03:39:04;;;;;;;26.87;15.23;;;-11.00;99.90;-11.60;102419.00;;;;4908375;28;93970;-65
2024/01/09 03:41:31;;;;;;;32.73;16.23;;;-10.70;99.90;-11.60;102415.00;;;;4906410;28;93809;-66
2024/01/09 03:43:57;;;;;;;31.27;15.27;;;-10.80;99.90;-11.50;102426.00;;;;4909795;28;94561;-66
2024/01/09 03:46:23;;;;;;;34.67;17.03;;;-10.70;99.90;-11.40;102416.00;;;;4903938;28;116168;-68
2024/01/09 03:48:49;;;;;;;34.30;16.53;;;-10.70;99.90;-11.40;102418.00;;;;4906192;28;92867;-66
2024/01/09 03:51:15;;;;;;;35.33;16.37;;;-10.60;99.90;-11.30;102410.00;;;;4907298;28;92882;-66
2024/01/09 03:53:40;;;;;;;35.03;17.17;;;-10.50;99.90;-11.30;102411.00;;;;4904225;28;93099;-66
2024/01/09 03:56:06;;;;;;;33.07;16.50;;;-10.40;99.90;-11.30;102410.00;;;;4905122;28;122317;-65
2024/01/09 03:58:32;;;;;;;37.27;18.57;;;-10.40;99.90;-11.30;102404.00;;;;4904244;28;122794;-66
2024/01/09 04:00:57;;;;;;;37.33;17.13;;;-10.40;99.90;-11.30;102407.00;;;;4903263;28;112514;-66
2024/01/09 04:03:23;;;;;;;31.43;15.60;;;-10.50;99.90;-11.40;102408.00;;;;4902791;28;108418;-65
2024/01/09 04:05:49;;;;;;;30.43;16.23;;;-10.10;99.90;-11.40;102403.00;;;;4904574;28;124584;-66
2024/01/09 04:08:14;;;;;;;35.53;17.40;;;-10.10;99.90;-11.40;102398.00;;;;4906076;28;123398;-66
2024/01/09 04:10:41;;;;;;;35.37;17.00;;;-10.60;99.90;-11.50;102414.00;;;;4904589;28;113219;-66
2024/01/09 04:13:06;;;;;;;30.90;16.73;;;-10.60;99.90;-11.50;102409.00;;;;4907799;28;93241;-66
2024/01/09 04:15:34;;;;;;;29.33;16.90;;;-10.60;99.90;-11.50;102423.00;;;;4904909;28;123219;-67
2024/01/09 04:18:01;;;;;;;34.77;17.87;;;-10.60;99.90;-11.50;102418.00;;;;4904302;28;94001;-66
2024/01/09 04:20:27;;;;;;;34.27;16.70;;;-10.70;99.90;-11.50;102425.00;;;;4904714;28;93034;-65
2024/01/09 04:22:52;;;;;;;36.37;16.27;;;-10.60;99.90;-11.60;102426.00;;;;4909086;28;108317;-66
2024/01/09 04:25:18;;;;;;;35.23;17.37;;;-10.60;99.90;-11.60;102418.00;;;;4905033;28;93405;-66
2024/01/09 04:27:44;;;;;;;42.03;19.47;;;-10.30;99.90;-11.60;102434.00;;;;4905216;28;121652;-67
2024/01/09 04:30:11;;;;;;;33.10;16.97;;;-10.60;99.90;-11.60;102432.00;;;;4900720;28;93973;-65
2024/01/09 04:32:42;;;;;;;49.90;19.40;;;-10.70;99.90;-11.60;102424.00;;;;4897898;28;101297;-66
2024/01/09 04:35:08;;;;;;;28.90;16.90;;;-9.90;99.90;-11.60;102427.00;;;;4908786;28;121423;-65
2024/01/09 04:37:34;;;;;;;39.30;17.90;;;-10.70;99.90;-11.60;102432.00;;;;4903608;28;123589;-66
2024/01/09 04:39:59;;;;;;;36.70;17.73;;;-10.10;99.90;-11.60;102424.00;;;;4903971;28;111005;-67
2024/01/09 04:42:26;;;;;;;33.23;17.00;;;-10.70;99.90;-11.60;102429.00;;;;4912053;28;106115;-68
2024/01/09 04:44:51;;;;;;;30.03;17.67;;;-10.80;99.90;-11.60;102413.00;;;;4906312;28;94219;-66
2024/01/09 04:47:17;;;;;;;37.70;17.57;;;-10.90;99.90;-11.50;102430.00;;;;4903459;28;98602;-66
2024/01/09 04:49:43;;;;;;;37.70;17.50;;;-10.40;99.90;-11.50;102411.00;;;;4908823;28;93625;-66
2024/01/09 04:52:09;;;;;;;34.77;17.83;;;-10.70;99.90;-11.50;102425.00;;;;4902654;28;108268;-67
2024/01/09 04:54:34;;;;;;;32.57;16.67;;;-10.60;99.90;-11.50;102415.00;;;;4909291;28;123512;-66
2024/01/09 04:57:00;;;;;;;35.57;17.67;;;-10.70;99.90;-11.40;102422.00;;;;4904384;28;122729;-65
2024/01/09 04:59:26;;;;;;;39.13;18.70;;;-10.20;99.90;-11.40;102420.00;;;;4908573;28;113448;-66
2024/01/09 05:01:51;;;;;;;32.13;17.37;;;-10.40;99.90;-11.40;102425.00;;;;4907160;28;108155;-67
2024/01/09 05:04:17;;;;;;;35.20;17.00;;;-10.50;99.90;-11.30;102428.00;;;;4907290;28;93434;-66
2024/01/09 05:06:43;;;;;;;33.10;16.30;;;-10.50;99.90;-11.30;102441.00;;;;4902796;28;123353;-67
2024/01/09 05:09:09;;;;;;;37.03;17.53;;;-10.50;99.90;-11.20;102433.00;;;;4903926;28;92970;-65
2024/01/09 05:11:35;;;;;;;40.67;18.40;;;-10.50;99.90;-11.20;102441.00;;;;4902863;28;92234;-66
2024/01/09 05:14:01;;;;;;;33.20;18.00;;;-9.40;99.90;-11.10;102448.00;;;;4903374;28;121942;-66
2024/01/09 05:16:27;;;;;;;31.27;16.17;;;-10.40;99.90;-11.00;102452.00;;;;4899443;28;123119;-67
2024/01/09 05:18:53;;;;;;;37.23;17.67;;;-10.20;99.90;-11.00;102440.00;;;;4904122;28;94195;-65
2024/01/09 05:21:19;;;;;;;34.07;18.00;;;-10.10;99.90;-11.00;102439.00;;;;4903608;28;94973;-65
2024/01/09 05:23:45;;;;;;;32.67;17.77;;;-10.10;99.90;-10.90;102455.00;;;;4896927;28;120951;-65
2024/01/09 05:26:11;;;;;;;43.97;20.67;;;-10.00;99.90;-10.90;102452.00;;;;4909713;28;114612;-66
2024/01/09 05:28:36;;;;;;;36.60;17.37;;;-10.10;99.90;-10.90;102454.00;;;;4909146;28;92957;-66
2024/01/09 05:31:03;;;;;;;37.37;18.37;;;-9.10;99.90;-10.80;102451.00;;;;4904532;28;106408;-66
2024/01/09 05:33:28;;;;;;;47.47;21.53;;;-10.00;99.90;-10.80;102437.00;;;;4900773;28;109642;-65
2024/01/09 05:35:54;;;;;;;43.63;18.83;;;-9.90;99.90;-10.80;102444.00;;;;4905572;28;123081;-67
2024/01/09 05:38:20;;;;;;;39.27;19.63;;;-9.90;99.90;-10.80;102447.00;;;;4902781;28;112122;-66
2024/01/09 05:40:46;;;;;;;41.27;19.27;;;-9.30;99.90;-10.80;102442.00;;;;4906619;28;108386;-67
2024/01/09 05:43:12;;;;;;;35.57;17.77;;;-9.90;99.90;-10.80;102450.00;;;;4905623;28;94622;-65
2024/01/09 05:45:38;;;;;;;39.07;19.37;;;-9.90;99.90;-10.80;102444.00;;;;4906560;28;114115;-66
2024/01/09 05:48:04;;;;;;;35.77;17.67;;;-10.00;99.90;-10.80;102447.00;;;;4904082;28;113900;-67
2024/01/09 05:50:30;;;;;;;43.47;19.03;;;-10.00;99.90;-10.90;102448.00;;;;4904188;28;96785;-65
2024/01/09 05:52:56;;;;;;;42.43;19.27;;;-9.50;99.90;-10.90;102438.00;;;;4905210;28;94617;-65
2024/01/09 05:55:22;;;;;;;41.73;20.07;;;-10.20;99.90;-10.90;102457.00;;;;4907876;28;93025;-66
2024/01/09 05:57:49;;;;;;;40.27;20.97;;;-10.10;99.90;-10.90;102447.00;;;;4902634;28;97594;-66
2024/01/09 06:00:16;;;;;;;40.40;19.30;;;-10.10;99.90;-10.90;102447.00;;;;4905310;28;97483;-65
2024/01/09 06:02:41;;;;;;;41.43;19.10;;;-10.10;99.90;-11.00;102452.00;;;;4904419;28;93868;-66
2024/01/09 06:05:07;;;;;;;33.57;19.70;;;-10.10;99.90;-11.00;102432.00;;;;4905157;28;96589;-65
2024/01/09 06:07:33;;;;;;;38.37;19.33;;;-10.10;99.90;-11.00;102438.00;;;;4901888;28;100751;-66
2024/01/09 06:10:02;;;;;;;38.27;18.93;;;-9.40;99.90;-11.00;102433.00;;;;4900611;28;92910;-66
2024/01/09 06:12:28;;;;;;;50.87;21.63;;;-9.60;99.90;-11.00;102446.00;;;;4905962;28;106792;-67
2024/01/09 06:14:53;;;;;;;46.63;25.63;;;-10.10;99.90;-11.10;102441.00;;;;4905417;28;122372;-67
2024/01/09 06:17:19;;;;;;;55.80;26.80;;;-10.00;99.90;-11.10;102430.00;;;;4904898;28;111585;-67
2024/01/09 06:19:45;;;;;;;47.37;24.37;;;-10.30;99.90;-11.00;102444.00;;;;4899647;28;108008;-67
2024/01/09 06:22:12;;;;;;;65.90;30.87;;;-9.10;99.90;-11.10;102447.00;;;;4897368;28;121453;-66
2024/01/09 06:24:37;;;;;;;73.47;36.53;;;-9.90;99.90;-11.00;102452.00;;;;4903147;28;93517;-66
2024/01/09 06:27:03;;;;;;;53.83;26.10;;;-10.20;99.90;-11.00;102452.00;;;;4900720;28;110587;-65
2024/01/09 06:29:29;;;;;;;41.43;22.40;;;-10.10;99.90;-11.00;102452.00;;;;4901992;28;93151;-66
2024/01/09 06:31:55;;;;;;;39.37;20.10;;;-10.10;99.90;-11.00;102445.00;;;;4898795;28;93995;-66
2024/01/09 06:34:21;;;;;;;42.67;21.03;;;-10.10;99.90;-10.90;102448.00;;;;4899170;28;122269;-65
2024/01/09 06:36:47;;;;;;;48.57;21.57;;;-10.10;99.90;-10.90;102457.00;;;;4904256;28;112515;-64
2024/01/09 06:39:13;;;;;;;51.47;22.40;;;-9.30;99.90;-10.90;102457.00;;;;4902386;28;93352;-66
2024/01/09 06:41:38;;;;;;;52.77;24.77;;;-10.20;99.90;-11.00;102446.00;;;;4901589;28;93844;-66
2024/01/09 06:44:04;;;;;;;44.97;21.53;;;-10.10;99.90;-11.00;102451.00;;;;4904265;28;122893;-67
2024/01/09 06:46:30;;;;;;;47.80;24.53;;;-10.00;99.90;-11.10;102453.00;;;;4899914;28;112427;-65
2024/01/09 06:48:56;;;;;;;43.67;24.20;;;-10.20;99.90;-11.10;102454.00;;;;4901693;28;108387;-65
2024/01/09 06:51:22;;;;;;;44.53;22.77;;;-10.20;99.90;-11.10;102461.00;;;;4901102;28;123854;-66
2024/01/09 06:53:47;;;;;;;46.73;23.07;;;-10.30;99.90;-11.20;102468.00;;;;4905521;28;122920;-66
2024/01/09 06:56:13;;;;;;;38.17;19.40;;;-10.40;99.90;-11.20;102459.00;;;;4901589;28;113710;-67
2024/01/09 06:58:39;;;;;;;44.83;21.90;;;-10.40;99.90;-11.30;102455.00;;;;4901754;28;109922;-65
2024/01/09 07:01:06;;;;;;;41.97;21.57;;;-10.10;99.90;-11.40;102452.00;;;;4900988;28;123892;-66
2024/01/09 07:03:32;;;;;;;49.07;22.57;;;-10.50;99.90;-11.40;102468.00;;;;4905315;28;93350;-65
2024/01/09 07:05:58;;;;;;;43.47;21.53;;;-10.60;99.90;-11.50;102458.00;;;;4901495;28;113659;-65
2024/01/09 07:08:23;;;;;;;41.10;23.27;;;-10.10;99.90;-11.60;102481.00;;;;4904215;28;93270;-67
2024/01/09 07:10:49;;;;;;;46.97;22.77;;;-10.70;99.90;-11.60;102466.00;;;;4902400;28;123706;-65
2024/01/09 07:13:15;;;;;;;79.03;46.40;;;-10.10;99.90;-11.70;102471.00;;;;4898223;28;123370;-66
2024/01/09 07:15:41;;;;;;;57.33;25.17;;;-10.70;99.90;-11.70;102464.00;;;;4901257;28;114198;-66
2024/01/09 07:18:07;;;;;;;68.93;35.00;;;-10.80;99.90;-11.80;102487.00;;;;4030085;28;10002223;-65
2024/01/09 07:20:32;;;;;;;55.93;31.73;;;-10.90;99.90;-11.80;102486.00;;;;4902793;28;94259;-65
2024/01/09 07:22:58;;;;;;;52.37;24.67;;;-10.90;99.90;-11.80;102503.00;;;;4900498;28;109359;-65
2024/01/09 07:25:24;;;;;;;50.50;29.43;;;-10.90;99.90;-11.80;102485.00;;;;4900998;28;123464;-65
2024/01/09 07:27:49;;;;;;;61.03;30.30;;;-11.00;99.90;-11.80;102494.00;;;;4899689;28;121727;-66
2024/01/09 07:30:16;;;;;;;65.07;32.80;;;-10.90;99.90;-11.80;102486.00;;;;4901268;28;113922;-65
2024/01/09 07:32:42;;;;;;;52.30;27.33;;;-9.90;99.90;-11.70;102499.00;;;;4902683;28;93392;-65
2024/01/09 07:35:08;;;;;;;50.47;26.63;;;-11.10;99.90;-11.70;102499.00;;;;4903468;28;93599;-65
2024/01/09 07:37:33;;;;;;;53.87;28.77;;;-10.80;99.90;-11.60;102482.00;;;;4904098;28;110323;-65
2024/01/09 07:39:59;;;;;;;53.37;26.83;;;-10.00;99.90;-11.50;102487.00;;;;4905925;28;93344;-66
2024/01/09 07:42:25;;;;;;;131.17;68.53;;;-10.70;99.90;-11.40;102494.00;;;;4897548;28;107782;-66
2024/01/09 07:44:50;;;;;;;49.20;24.50;;;-10.70;99.90;-11.20;102495.00;;;;4899382;28;124276;-66
2024/01/09 07:47:16;;;;;;;59.47;27.67;;;-9.70;99.90;-11.10;102501.00;;;;4901785;28;104734;-68
2024/01/09 07:49:42;;;;;;;44.60;22.13;;;-11.30;99.90;-11.00;102487.00;;;;4904084;28;93316;-64
2024/01/09 07:52:09;;;;;;;52.80;23.60;;;-9.50;99.90;-10.80;102490.00;;;;4903813;28;93148;-65
2024/01/09 07:54:35;;;;;;;57.57;25.33;;;-10.10;99.90;-10.70;102498.00;;;;4900088;28;123446;-66
2024/01/09 07:57:01;;;;;;;46.27;25.70;;;-10.00;99.90;-10.60;102494.00;;;;4904613;28;93658;-65
2024/01/09 07:59:26;;;;;;;44.30;23.43;;;-9.90;99.90;-10.50;102497.00;;;;4899822;28;92780;-65
2024/01/09 08:01:55;;;;;;;42.53;25.57;;;-9.70;99.90;-10.40;102502.00;;;;4904847;28;92238;-66
2024/01/09 08:04:23;;;;;;;49.00;25.80;;;-9.60;99.90;-10.30;102502.00;;;;4900128;28;93243;-67
2024/01/09 08:06:52;;;;;;;39.57;22.17;;;-9.60;99.90;-10.10;102504.00;;;;4898349;28;98351;-65
2024/01/09 08:09:20;;;;;;;50.67;25.13;;;-9.40;99.90;-10.00;102504.00;;;;4899906;28;94108;-65
2024/01/09 08:11:47;;;;;;;51.43;27.50;;;-9.30;99.90;-9.80;102506.00;;;;4902730;28;92807;-66
2024/01/09 08:14:13;;;;;;;59.47;28.80;;;-9.10;99.90;-9.70;102497.00;;;;4906622;28;94774;-67
2024/01/09 08:16:43;;;;;;;75.37;38.73;;;-9.00;99.90;-9.60;102496.00;;;;4904585;28;93264;-65
2024/01/09 08:19:08;;;;;;;72.10;37.30;;;-8.90;99.90;-9.40;102497.00;;;;4900513;28;92722;-65
2024/01/09 08:21:35;;;;;;;56.40;28.37;;;-8.80;99.90;-9.20;102500.00;;;;4907328;28;92990;-66
2024/01/09 08:24:04;;;;;;;55.77;29.53;;;-8.60;99.90;-9.00;102502.00;;;;4902463;28;94170;-66
2024/01/09 08:26:30;;;;;;;52.67;25.77;;;-8.30;99.90;-8.70;102503.00;;;;4901342;28;113487;-65
2024/01/09 08:28:56;;;;;;;63.80;42.10;;;-7.80;99.90;-8.50;102495.00;;;;4901236;28;101854;-65
2024/01/09 08:31:22;;;;;;;53.63;28.90;;;-8.00;99.90;-8.40;102502.00;;;;4904424;28;94544;-65
2024/01/09 08:33:48;;;;;;;53.27;26.00;;;-7.80;99.90;-8.20;102505.00;;;;4898512;28;123095;-65
2024/01/09 08:36:17;;;;;;;47.43;23.27;;;-7.50;99.90;-8.00;102496.00;;;;4908574;28;97182;-66
2024/01/09 08:38:42;;;;;;;135.70;65.83;;;-7.30;99.90;-7.80;102496.00;;;;4904530;28;93174;-66
2024/01/09 08:41:10;;;;;;;44.33;22.40;;;-6.90;99.90;-7.70;102493.00;;;;4902921;28;108235;-65
2024/01/09 08:43:36;;;;;;;44.37;20.77;;;-6.20;99.90;-7.60;102501.00;;;;4900025;28;93765;-65
2024/01/09 08:46:01;;;;;;;57.17;28.03;;;-6.20;99.90;-7.50;102506.00;;;;4901007;28;124313;-64
2024/01/09 08:48:27;;;;;;;41.40;22.67;;;-5.90;99.90;-7.40;102498.00;;;;4900822;28;93032;-65
2024/01/09 08:50:53;;;;;;;42.63;22.80;;;-6.80;99.90;-7.30;102498.00;;;;4901058;28;109762;-64
2024/01/09 08:53:20;;;;;;;44.00;20.73;;;-6.90;99.90;-7.20;102497.00;;;;4900856;28;121085;-65
2024/01/09 08:55:46;;;;;;;37.73;21.03;;;-6.60;99.90;-7.10;102500.00;;;;4900613;28;93070;-64
2024/01/09 08:58:11;;;;;;;46.00;21.23;;;-6.50;99.90;-7.00;102504.00;;;;4900591;28;114566;-65
2024/01/09 09:00:37;;;;;;;36.83;19.47;;;-6.50;99.90;-7.00;102506.00;;;;4898147;28;93004;-65
2024/01/09 09:03:03;;;;;;;49.63;24.40;;;-6.40;99.90;-6.90;102495.00;;;;4900381;28;93401;-63
2024/01/09 09:05:29;;;;;;;46.83;20.40;;;-6.20;99.90;-6.70;102491.00;;;;4901367;28;93029;-64
2024/01/09 09:07:55;;;;;;;36.33;20.07;;;-6.20;99.90;-6.60;102494.00;;;;4901434;28;95079;-66
2024/01/09 09:10:20;;;;;;;39.07;20.17;;;-6.10;99.90;-6.50;102487.00;;;;4899346;28;93366;-64
2024/01/09 09:12:46;;;;;;;33.73;18.87;;;-5.90;99.90;-6.50;102493.00;;;;4902426;28;121838;-63
2024/01/09 09:15:12;;;;;;;46.40;22.83;;;-5.90;99.90;-6.40;102487.00;;;;4901360;28;93939;-64
2024/01/09 09:17:37;;;;;;;35.30;20.17;;;-5.80;99.90;-6.20;102494.00;;;;4898314;28;93427;-63
2024/01/09 09:20:05;;;;;;;41.90;21.70;;;-5.60;99.90;-6.00;102492.00;;;;4898949;28;109005;-64
2024/01/09 09:22:31;;;;;;;40.67;22.00;;;-5.50;99.90;-5.90;102492.00;;;;4904088;28;95281;-63
2024/01/09 09:24:58;;;;;;;40.13;20.33;;;-5.70;99.90;-5.80;102491.00;;;;4901087;28;94707;-63
2024/01/09 09:27:23;;;;;;;47.70;18.93;;;-5.20;99.90;-5.80;102499.00;;;;4898620;28;113430;-63
2024/01/09 09:29:49;;;;;;;36.30;18.90;;;-5.30;99.90;-5.70;102494.00;;;;4905685;28;108708;-61
2024/01/09 09:32:15;;;;;;;28.20;18.93;;;-5.10;99.90;-5.60;102502.00;;;;4902182;28;102084;-63
2024/01/09 09:34:41;;;;;;;32.27;16.57;;;-5.10;99.90;-5.60;102502.00;;;;4897838;28;93258;-63
2024/01/09 09:37:07;;;;;;;35.03;18.80;;;-5.10;99.90;-5.50;102493.00;;;;4898999;28;112050;-63
2024/01/09 09:39:34;;;;;;;40.93;22.90;;;-5.00;99.90;-5.30;102496.00;;;;4902545;28;108918;-63
2024/01/09 09:42:00;;;;;;;39.67;19.03;;;-4.80;99.90;-5.20;102503.00;;;;4902477;28;111144;-64
2024/01/09 09:44:26;;;;;;;40.90;19.07;;;-4.70;99.90;-5.00;102503.00;;;;4901936;28;92915;-61
2024/01/09 09:46:54;;;;;;;30.10;17.17;;;-4.60;99.90;-4.90;102504.00;;;;4902470;28;93857;-64
2024/01/09 09:49:24;;;;;;;37.47;17.40;;;-4.40;99.90;-4.70;102500.00;;;;4898828;28;93045;-63
2024/01/09 09:51:52;;;;;;;28.53;16.87;;;-4.30;99.90;-4.60;102511.00;;;;4900969;28;93547;-63
2024/01/09 09:54:19;;;;;;;25.73;15.77;;;-4.10;99.90;-4.60;102512.00;;;;4901225;28;114458;-62
2024/01/09 09:56:46;;;;;;;31.63;18.07;;;-4.20;99.20;-4.50;102506.00;;;;4899896;28;93178;-62
2024/01/09 09:59:12;;;;;;;27.30;16.43;;;-4.10;99.80;-4.40;102508.00;;;;4906144;28;93043;-63
2024/01/09 10:01:40;;;;;;;34.80;15.40;;;-3.90;99.80;-4.20;102505.00;;;;4910191;28;117086;-63
2024/01/09 10:04:36;;;;;;;34.17;15.87;;;-3.80;99.40;-4.10;102501.00;;;;4907102;28;93375;-63
2024/01/09 10:07:03;;;;;;;30.37;17.47;;;-3.00;99.30;-3.80;102494.00;;;;4914124;28;93193;-63
2024/01/09 10:09:34;;;;;;;30.33;15.43;;;-3.40;99.80;-3.50;102502.00;;;;4920237;28;108204;-64
2024/01/09 10:12:00;;;;;;;28.60;15.60;;;-3.20;99.30;-3.40;102491.00;;;;4907509;28;94478;-64
2024/01/09 10:14:26;;;;;;;25.97;17.33;;;-2.90;98.80;-3.20;102504.00;;;;4907948;28;97222;-63
2024/01/09 10:16:53;;;;;;;22.90;15.80;;;-2.90;98.50;-3.10;102504.00;;;;4908881;28;102230;-63